»·PEaware :: AAL2295 KMIA-TLPL

AAL2295 :: KMIA-TLPL

FLIGHT INFORMATION

Flight Status: Arrived
Operator:
American Airlines
More flights by this operator :: More flights under this callsign
Pilot: Drew Leevy (13237)
Aircraft: BOEING 757-200
(B752)
More flights by this aircraft type
Origin: KMIA Miami Intl
United States
Destination: TLPL Hewanorra Intl
Saint Lucia
More flights between these airports :: More routes between these airports
Route: SKIPS2 SKIPS Y587 DONEZ A555 IDAHO A555 DDP ILURI UA555 FOF UA324 BNE
File this flight plan on PilotEdge
Remarks: Sample flight plan
Altitude:
(Current/Filed)
35,000ft
Speed:
(Current/Filed)
550kts
Departed: 16-Jun-17 01:32 PM
Arrived: 16-Jun-17 04:31 PM
Distance/Time
Traveled:
1307nm/2:59
Distance/Time
To Go:
Arrived

Flight Plot

Page will automatically refresh every two minutes.

Flight plan parsing failed; only flown route is shown


Map Options




Map Legend


Flown Route
Filed Route
Departure Airport
Arrival Airport
Navaid (VOR, NDB)
Fix

Horizontal Profiles

Position Reports

Time Latitude Longitude Heading Altitude Ground
Speed
16-Jun-17 13:29 25.794366 -80.285054 6 18ft 0kts
16-Jun-17 13:29 25.794373 -80.285054 6 18ft 0kts
16-Jun-17 13:30 25.795895 -80.286447 262 17ft 13kts
16-Jun-17 13:32 25.796099 -80.290786 242 17ft 13kts
16-Jun-17 13:33 25.797992 -80.295419 300 17ft 20kts
16-Jun-17 13:34 25.799619 -80.300669 263 17ft 13kts
16-Jun-17 13:35 25.796589 -80.297015 118 18ft 101kts
16-Jun-17 13:36 25.773565 -80.250359 117 2226ft 213kts
16-Jun-17 13:37 25.770316 -80.184270 96 5308ft 233kts
16-Jun-17 13:38 25.742831 -80.108551 115 8016ft 288kts
16-Jun-17 13:39 25.714039 -80.024184 107 11448ft 307kts
16-Jun-17 13:39 25.695164 -79.939191 102 12803ft 372kts
16-Jun-17 13:40 25.672437 -79.825529 102 16060ft 387kts
16-Jun-17 13:41 25.648649 -79.706822 103 18859ft 404kts
16-Jun-17 13:42 25.621139 -79.583684 104 21406ft 420kts
16-Jun-17 13:43 25.592512 -79.456314 104 23724ft 434kts
16-Jun-17 13:44 25.563111 -79.326054 105 25750ft 448kts
16-Jun-17 13:45 25.532237 -79.190592 105 27572ft 461kts
16-Jun-17 13:46 25.500228 -79.051186 105 29240ft 473kts
16-Jun-17 13:47 25.467442 -78.909070 105 30766ft 484kts
16-Jun-17 13:48 25.433954 -78.764581 105 32321ft 489kts
16-Jun-17 13:49 25.400180 -78.619552 105 34157ft 486kts
16-Jun-17 13:50 25.366462 -78.475443 105 35041ft 484kts
16-Jun-17 13:51 25.333317 -78.334462 106 35048ft 484kts
16-Jun-17 13:52 25.296960 -78.191404 115 35047ft 482kts
16-Jun-17 13:53 25.233560 -78.061959 121 35047ft 481kts
16-Jun-17 13:54 25.167260 -77.934393 121 35048ft 481kts
16-Jun-17 13:55 25.101260 -77.806108 121 35048ft 481kts
16-Jun-17 13:56 25.035645 -77.678240 121 35051ft 481kts
16-Jun-17 13:57 24.969855 -77.550291 121 35049ft 481kts
16-Jun-17 13:58 24.903918 -77.422396 121 35050ft 481kts
16-Jun-17 13:59 24.838294 -77.295465 121 35047ft 481kts
16-Jun-17 14:00 24.772012 -77.167596 121 35047ft 481kts
16-Jun-17 14:01 24.705834 -77.040275 121 35048ft 481kts
16-Jun-17 14:02 24.635520 -76.915651 125 35049ft 480kts
16-Jun-17 14:03 24.561933 -76.793708 125 35049ft 480kts
16-Jun-17 14:04 24.488921 -76.671641 125 35050ft 480kts
16-Jun-17 14:05 24.422834 -76.544700 120 35052ft 481kts
16-Jun-17 14:06 24.353090 -76.419697 124 35051ft 480kts
16-Jun-17 14:07 24.280613 -76.297861 125 35046ft 480kts
16-Jun-17 14:08 24.203299 -76.179049 128 35047ft 479kts
16-Jun-17 14:09 24.125114 -76.061422 128 35047ft 479kts
16-Jun-17 14:10 24.046829 -75.943898 128 35048ft 479kts
16-Jun-17 14:11 23.968154 -75.826069 128 35048ft 479kts
16-Jun-17 14:12 23.889905 -75.709153 128 35050ft 480kts
16-Jun-17 14:13 23.811315 -75.592014 128 35051ft 479kts
16-Jun-17 14:14 23.732414 -75.474680 128 35051ft 480kts
16-Jun-17 14:15 23.653720 -75.357930 128 35052ft 480kts
16-Jun-17 14:16 23.577146 -75.239212 120 35050ft 482kts
16-Jun-17 14:17 23.513059 -75.111706 120 35047ft 482kts
16-Jun-17 14:18 23.448754 -74.983532 120 35048ft 482kts
16-Jun-17 14:19 23.384712 -74.856107 120 35034ft 482kts
16-Jun-17 14:20 23.320491 -74.728636 120 35022ft 482kts
16-Jun-17 14:21 23.255992 -74.600945 120 35023ft 482kts
16-Jun-17 14:22 23.191492 -74.473578 120 35023ft 482kts
16-Jun-17 14:23 23.126629 -74.346237 121 35023ft 482kts
16-Jun-17 14:24 23.061425 -74.219645 121 35019ft 482kts
16-Jun-17 14:25 22.996003 -74.092924 121 35020ft 482kts
16-Jun-17 14:26 22.930424 -73.966220 121 35020ft 482kts
16-Jun-17 14:27 22.865211 -73.840533 121 35022ft 482kts
16-Jun-17 14:28 22.799562 -73.714324 121 35023ft 482kts
16-Jun-17 14:29 22.733715 -73.588045 121 35024ft 482kts
16-Jun-17 14:30 22.667757 -73.461865 121 35024ft 482kts
16-Jun-17 14:31 22.601946 -73.336273 121 35022ft 482kts
16-Jun-17 14:32 22.535767 -73.210286 121 35020ft 482kts
16-Jun-17 14:33 22.469604 -73.084639 121 35020ft 482kts
16-Jun-17 14:34 22.403333 -72.959093 121 35021ft 482kts
16-Jun-17 14:35 22.336827 -72.833411 121 35022ft 482kts
16-Jun-17 14:36 22.270370 -72.708124 121 35022ft 482kts
16-Jun-17 14:37 22.198422 -72.586509 122 35024ft 482kts
16-Jun-17 14:38 22.133825 -72.460357 119 35023ft 483kts
16-Jun-17 14:39 22.067912 -72.334261 121 35020ft 482kts
16-Jun-17 14:40 22.002239 -72.208677 121 35019ft 482kts
16-Jun-17 14:41 21.936581 -72.083287 121 35020ft 482kts
16-Jun-17 14:42 21.870964 -71.958255 121 35022ft 482kts
16-Jun-17 14:43 21.804950 -71.832757 121 35022ft 482kts
16-Jun-17 14:44 21.738970 -71.707626 121 35023ft 482kts
16-Jun-17 14:45 21.672808 -71.582447 121 35024ft 482kts
16-Jun-17 14:46 21.606556 -71.457382 121 35024ft 482kts
16-Jun-17 14:47 21.540112 -71.332246 122 35020ft 482kts
16-Jun-17 14:48 21.473796 -71.207638 122 35020ft 482kts
16-Jun-17 14:49 21.404298 -71.084633 125 35021ft 481kts
16-Jun-17 14:50 21.331667 -70.964605 125 35021ft 481kts
16-Jun-17 14:51 21.258731 -70.844217 125 35021ft 481kts
16-Jun-17 14:52 21.186205 -70.724740 125 35012ft 481kts
16-Jun-17 14:53 21.113178 -70.604781 125 34996ft 481kts
16-Jun-17 14:54 21.040073 -70.485070 125 34996ft 481kts
16-Jun-17 14:55 20.966905 -70.365504 125 34997ft 481kts
16-Jun-17 14:56 20.895580 -70.249198 125 34992ft 481kts
16-Jun-17 14:57 20.822300 -70.129839 125 34994ft 481kts
16-Jun-17 14:58 20.748897 -70.010540 125 34994ft 481kts
16-Jun-17 14:59 20.675444 -69.891417 125 34995ft 481kts
16-Jun-17 15:00 20.601733 -69.772118 125 34995ft 481kts
16-Jun-17 15:01 20.528151 -69.653727 125 34996ft 481kts
16-Jun-17 15:02 20.453982 -69.535469 126 35024ft 481kts
16-Jun-17 15:03 20.379770 -69.417486 126 35024ft 481kts
16-Jun-17 15:04 20.305505 -69.299658 126 35045ft 481kts
16-Jun-17 15:05 20.231024 -69.181728 126 35046ft 481kts
16-Jun-17 15:06 20.156481 -69.063934 126 35047ft 481kts
16-Jun-17 15:07 20.081270 -68.946388 126 35048ft 481kts
16-Jun-17 15:08 20.006341 -68.829045 126 35048ft 481kts
16-Jun-17 15:09 19.932262 -68.710962 123 35048ft 482kts
16-Jun-17 15:11 19.871101 -68.586719 123 35052ft 482kts
16-Jun-17 15:12 19.798965 -68.466784 125 35050ft 481kts
16-Jun-17 15:13 19.725927 -68.350274 125 35052ft 481kts
16-Jun-17 15:14 19.651947 -68.233126 126 35047ft 481kts
16-Jun-17 15:15 19.577499 -68.115557 126 35047ft 481kts
16-Jun-17 15:16 19.503045 -67.998223 126 35048ft 481kts
16-Jun-17 15:17 19.428438 -67.880879 126 35049ft 481kts
16-Jun-17 15:18 19.353870 -67.763820 126 35049ft 481kts
16-Jun-17 15:19 19.279181 -67.646791 126 35050ft 481kts
16-Jun-17 15:20 19.204238 -67.529537 126 35051ft 481kts
16-Jun-17 15:21 19.129233 -67.412387 126 35051ft 481kts
16-Jun-17 15:22 19.054539 -67.295955 126 35045ft 481kts
16-Jun-17 15:23 18.979457 -67.179138 126 35046ft 481kts
16-Jun-17 15:24 18.904628 -67.062976 124 35049ft 480kts
16-Jun-17 15:25 18.830058 -66.947332 124 35048ft 480kts
16-Jun-17 15:26 18.754769 -66.830834 125 35051ft 484kts
16-Jun-17 15:27 18.679079 -66.713943 125 35049ft 484kts
16-Jun-17 15:28 18.603563 -66.597534 125 35050ft 484kts
16-Jun-17 15:29 18.527676 -66.480765 124 35050ft 484kts
16-Jun-17 15:30 18.452605 -66.363417 123 35051ft 484kts
16-Jun-17 15:31 18.384778 -66.253874 123 35047ft 484kts
16-Jun-17 15:32 18.311353 -66.135556 123 35048ft 484kts
16-Jun-17 15:33 18.237960 -66.017516 123 35048ft 484kts
16-Jun-17 15:34 18.164641 -65.899806 123 35076ft 484kts
16-Jun-17 15:35 18.091062 -65.781894 123 35077ft 484kts
16-Jun-17 15:36 18.017411 -65.664081 123 35077ft 484kts
16-Jun-17 15:37 17.943709 -65.546395 123 35078ft 484kts
16-Jun-17 15:38 17.869920 -65.428788 123 35077ft 483kts
16-Jun-17 15:39 17.796680 -65.312266 124 35046ft 483kts
16-Jun-17 15:40 17.722639 -65.194670 124 35047ft 483kts
16-Jun-17 15:41 17.648523 -65.077169 124 35047ft 483kts
16-Jun-17 15:42 17.574543 -64.960086 124 35048ft 483kts
16-Jun-17 15:43 17.490213 -64.850901 129 35051ft 483kts
16-Jun-17 15:44 17.411755 -64.736919 124 35049ft 483kts
16-Jun-17 15:45 17.337006 -64.620711 124 35050ft 483kts
16-Jun-17 15:46 17.262465 -64.503852 124 35051ft 483kts
16-Jun-17 15:47 17.187912 -64.387023 124 35051ft 483kts
16-Jun-17 15:48 17.113535 -64.270672 124 35047ft 483kts
16-Jun-17 15:49 17.039941 -64.153487 116 35048ft 484kts
16-Jun-17 15:50 16.978623 -64.029277 122 35049ft 484kts
16-Jun-17 15:51 16.905977 -63.911746 124 34996ft 483kts
16-Jun-17 15:52 16.831432 -63.795179 124 34994ft 483kts
16-Jun-17 15:53 16.756980 -63.679463 124 34995ft 482kts
16-Jun-17 15:54 16.682076 -63.563295 124 34996ft 482kts
16-Jun-17 15:55 16.607436 -63.447739 124 34996ft 482kts
16-Jun-17 15:56 16.533322 -63.333193 124 35047ft 483kts
16-Jun-17 15:57 16.458438 -63.217633 124 35047ft 483kts
16-Jun-17 15:58 16.383634 -63.102389 124 35060ft 483kts
16-Jun-17 15:59 16.307072 -62.987590 131 35075ft 482kts
16-Jun-17 16:00 16.218653 -62.882815 132 35076ft 482kts
16-Jun-17 16:01 16.129819 -62.778509 132 35077ft 482kts
16-Jun-17 16:02 16.040814 -62.674276 132 35077ft 482kts
16-Jun-17 16:03 15.952105 -62.570561 132 35078ft 482kts
16-Jun-17 16:04 15.863417 -62.467028 132 35077ft 482kts
16-Jun-17 16:05 15.774419 -62.363287 132 35052ft 482kts
16-Jun-17 16:06 15.685727 -62.260035 132 35047ft 482kts
16-Jun-17 16:07 15.596823 -62.156751 132 35047ft 482kts
16-Jun-17 16:08 15.507363 -62.053144 132 34994ft 482kts
16-Jun-17 16:09 15.418244 -61.950075 132 34994ft 482kts
16-Jun-17 16:10 15.328606 -61.846549 132 34995ft 482kts
16-Jun-17 16:11 15.239260 -61.743503 132 34995ft 482kts
16-Jun-17 16:11 15.164654 -61.657566 132 34996ft 483kts
16-Jun-17 16:12 15.075112 -61.554552 132 34997ft 483kts
16-Jun-17 16:14 14.970566 -61.434453 132 34997ft 483kts
16-Jun-17 16:14 14.899046 -61.352385 132 34472ft 453kts
16-Jun-17 16:15 14.816391 -61.257685 132 32462ft 441kts
16-Jun-17 16:16 14.731754 -61.160834 132 28340ft 468kts
16-Jun-17 16:17 14.647173 -61.065054 136 24566ft 441kts
16-Jun-17 16:18 14.541361 -61.015893 173 21050ft 412kts
16-Jun-17 16:19 14.430746 -61.006336 176 17844ft 392kts
16-Jun-17 16:20 14.324317 -61.000285 177 15040ft 377kts
16-Jun-17 16:21 14.221665 -60.994795 177 13068ft 365kts
16-Jun-17 16:22 14.122093 -60.989676 180 11118ft 356kts
16-Jun-17 16:23 14.028322 -60.996337 184 10036ft 302kts
16-Jun-17 16:24 13.952984 -61.001952 184 9865ft 248kts
16-Jun-17 16:25 13.887878 -61.006659 184 8976ft 222kts
16-Jun-17 16:26 13.827517 -61.010873 184 7510ft 215kts
16-Jun-17 16:27 13.780704 -61.035361 262 5373ft 204kts
16-Jun-17 16:28 13.771589 -61.091091 228 3490ft 196kts
16-Jun-17 16:29 13.733963 -61.074759 118 2202ft 183kts
16-Jun-17 16:30 13.732569 -61.033191 80 1403ft 126kts
16-Jun-17 16:31 13.733165 -60.996154 89 700ft 130kts
16-Jun-17 16:32 13.733187 -60.960558 86 36ft 114kts
16-Jun-17 16:33 13.734381 -60.951356 1 36ft 13kts
16-Jun-17 16:34 13.735398 -60.950079 9 38ft 5kts
16-Jun-17 16:35 13.735514 -60.950065 3 38ft 0kts

Navigation Log

Ident Type
Flight plan parsing failed, navigation log unavailable